sensor_id;sensor_type;location;lat;lon;timestamp;temperature;humidity
20068;DHT22;10194;50.824;7.134;2024-02-04T00:01:52;9.80;99.90
20068;DHT22;10194;50.824;7.134;2024-02-04T00:04:18;9.80;99.90
20068;DHT22;10194;50.824;7.134;2024-02-04T00:06:44;9.80;99.90
20068;DHT22;10194;50.824;7.134;2024-02-04T00:09:10;9.80;99.90
20068;DHT22;10194;50.824;7.134;2024-02-04T00:11:36;9.80;99.90
20068;DHT22;10194;50.824;7.134;2024-02-04T00:14:01;9.80;99.90
20068;DHT22;10194;50.824;7.134;2024-02-04T00:16:28;9.80;99.90
20068;DHT22;10194;50.824;7.134;2024-02-04T00:18:54;9.80;99.90
20068;DHT22;10194;50.824;7.134;2024-02-04T00:21:20;9.80;99.90
20068;DHT22;10194;50.824;7.134;2024-02-04T00:23:46;9.80;99.90
20068;DHT22;10194;50.824;7.134;2024-02-04T00:26:12;9.80;99.90
20068;DHT22;10194;50.824;7.134;2024-02-04T00:28:37;9.80;99.90
20068;DHT22;10194;50.824;7.134;2024-02-04T00:31:05;9.70;99.90
20068;DHT22;10194;50.824;7.134;2024-02-04T00:33:30;9.70;99.90
20068;DHT22;10194;50.824;7.134;2024-02-04T00:35:56;9.70;99.90
20068;DHT22;10194;50.824;7.134;2024-02-04T00:38:22;9.70;99.90
20068;DHT22;10194;50.824;7.134;2024-02-04T00:40:47;9.70;99.90
20068;DHT22;10194;50.824;7.134;2024-02-04T00:43:13;9.60;99.90
20068;DHT22;10194;50.824;7.134;2024-02-04T00:45:39;9.60;99.90
20068;DHT22;10194;50.824;7.134;2024-02-04T00:48:05;9.60;99.90
20068;DHT22;10194;50.824;7.134;2024-02-04T00:50:31;9.60;99.90
20068;DHT22;10194;50.824;7.134;2024-02-04T00:52:56;9.60;99.90
20068;DHT22;10194;50.824;7.134;2024-02-04T00:55:22;9.60;99.90
20068;DHT22;10194;50.824;7.134;2024-02-04T00:57:48;9.50;99.90
20068;DHT22;10194;50.824;7.134;2024-02-04T01:00:14;9.50;99.90
20068;DHT22;10194;50.824;7.134;2024-02-04T01:02:40;9.50;99.90
20068;DHT22;10194;50.824;7.134;2024-02-04T01:05:07;9.50;99.90
20068;DHT22;10194;50.824;7.134;2024-02-04T01:07:33;9.50;99.90
20068;DHT22;10194;50.824;7.134;2024-02-04T01:09:59;9.50;99.90
20068;DHT22;10194;50.824;7.134;2024-02-04T01:12:25;9.50;99.90
20068;DHT22;10194;50.824;7.134;2024-02-04T01:14:51;9.40;99.90
20068;DHT22;10194;50.824;7.134;2024-02-04T01:17:17;9.40;99.90
20068;DHT22;10194;50.824;7.134;2024-02-04T01:19:42;9.40;99.90
20068;DHT22;10194;50.824;7.134;2024-02-04T01:22:08;9.40;99.90
20068;DHT22;10194;50.824;7.134;2024-02-04T01:24:34;9.40;99.90
20068;DHT22;10194;50.824;7.134;2024-02-04T01:27:00;9.40;99.90
20068;DHT22;10194;50.824;7.134;2024-02-04T01:29:25;9.40;99.90
20068;DHT22;10194;50.824;7.134;2024-02-04T01:31:51;9.40;99.90
20068;DHT22;10194;50.824;7.134;2024-02-04T01:34:17;9.40;99.90
20068;DHT22;10194;50.824;7.134;2024-02-04T01:36:43;9.40;99.90
20068;DHT22;10194;50.824;7.134;2024-02-04T01:39:08;9.40;99.90
20068;DHT22;10194;50.824;7.134;2024-02-04T01:41:35;9.40;99.90
20068;DHT22;10194;50.824;7.134;2024-02-04T01:44:01;9.40;99.90
20068;DHT22;10194;50.824;7.134;2024-02-04T01:46:28;9.40;99.90
20068;DHT22;10194;50.824;7.134;2024-02-04T01:48:54;9.40;99.90
20068;DHT22;10194;50.824;7.134;2024-02-04T01:51:21;9.40;99.90
20068;DHT22;10194;50.824;7.134;2024-02-04T01:53:47;9.40;99.90
20068;DHT22;10194;50.824;7.134;2024-02-04T01:56:15;9.40;99.90
20068;DHT22;10194;50.824;7.134;2024-02-04T01:58:42;9.40;99.90
20068;DHT22;10194;50.824;7.134;2024-02-04T02:01:13;9.40;99.90
20068;DHT22;10194;50.824;7.134;2024-02-04T02:03:39;9.40;99.90
20068;DHT22;10194;50.824;7.134;2024-02-04T02:06:05;9.40;99.90
20068;DHT22;10194;50.824;7.134;2024-02-04T02:08:32;9.40;99.90
20068;DHT22;10194;50.824;7.134;2024-02-04T02:11:18;9.40;99.90
20068;DHT22;10194;50.824;7.134;2024-02-04T02:13:51;9.40;99.90
20068;DHT22;10194;50.824;7.134;2024-02-04T02:16:23;9.40;99.90
20068;DHT22;10194;50.824;7.134;2024-02-04T02:18:53;9.40;99.90
20068;DHT22;10194;50.824;7.134;2024-02-04T02:24:28;9.40;99.90
20068;DHT22;10194;50.824;7.134;2024-02-04T02:27:01;9.40;99.90
20068;DHT22;10194;50.824;7.134;2024-02-04T02:29:27;9.50;99.90
20068;DHT22;10194;50.824;7.134;2024-02-04T02:31:53;9.50;99.90
20068;DHT22;10194;50.824;7.134;2024-02-04T02:34:19;9.50;99.90
20068;DHT22;10194;50.824;7.134;2024-02-04T02:36:45;9.50;99.90
20068;DHT22;10194;50.824;7.134;2024-02-04T02:39:25;9.50;99.90
20068;DHT22;10194;50.824;7.134;2024-02-04T02:41:57;9.50;99.90
20068;DHT22;10194;50.824;7.134;2024-02-04T02:44:28;9.50;99.90
20068;DHT22;10194;50.824;7.134;2024-02-04T02:46:56;9.50;99.90
20068;DHT22;10194;50.824;7.134;2024-02-04T02:49:22;9.60;99.90
20068;DHT22;10194;50.824;7.134;2024-02-04T02:51:48;9.60;99.90
20068;DHT22;10194;50.824;7.134;2024-02-04T02:54:14;9.60;99.90
20068;DHT22;10194;50.824;7.134;2024-02-04T02:56:39;9.60;99.90
20068;DHT22;10194;50.824;7.134;2024-02-04T02:59:05;9.60;99.90
20068;DHT22;10194;50.824;7.134;2024-02-04T03:01:31;9.60;99.90
20068;DHT22;10194;50.824;7.134;2024-02-04T03:03:57;9.60;99.90
20068;DHT22;10194;50.824;7.134;2024-02-04T03:06:22;9.60;99.90
20068;DHT22;10194;50.824;7.134;2024-02-04T03:08:48;9.70;99.90
20068;DHT22;10194;50.824;7.134;2024-02-04T03:11:15;9.70;99.90
20068;DHT22;10194;50.824;7.134;2024-02-04T03:13:41;9.70;99.90
20068;DHT22;10194;50.824;7.134;2024-02-04T03:16:11;9.80;99.90
20068;DHT22;10194;50.824;7.134;2024-02-04T03:18:42;9.80;99.90
20068;DHT22;10194;50.824;7.134;2024-02-04T03:21:15;9.90;99.90
20068;DHT22;10194;50.824;7.134;2024-02-04T03:23:44;9.90;99.90
20068;DHT22;10194;50.824;7.134;2024-02-04T03:26:10;9.90;99.90
20068;DHT22;10194;50.824;7.134;2024-02-04T03:28:37;10.00;99.90
20068;DHT22;10194;50.824;7.134;2024-02-04T03:31:03;10.00;99.90
20068;DHT22;10194;50.824;7.134;2024-02-04T03:33:29;10.00;99.90
20068;DHT22;10194;50.824;7.134;2024-02-04T03:35:54;10.20;99.90
20068;DHT22;10194;50.824;7.134;2024-02-04T03:38:20;10.20;99.90
20068;DHT22;10194;50.824;7.134;2024-02-04T03:40:47;10.20;99.90
20068;DHT22;10194;50.824;7.134;2024-02-04T03:43:14;10.20;99.90
20068;DHT22;10194;50.824;7.134;2024-02-04T03:45:40;10.20;99.90
20068;DHT22;10194;50.824;7.134;2024-02-04T03:48:06;10.20;99.90
20068;DHT22;10194;50.824;7.134;2024-02-04T03:50:32;10.20;99.90
20068;DHT22;10194;50.824;7.134;2024-02-04T03:52:58;10.20;99.90
20068;DHT22;10194;50.824;7.134;2024-02-04T03:55:23;10.20;99.90
20068;DHT22;10194;50.824;7.134;2024-02-04T03:57:52;10.20;99.90
20068;DHT22;10194;50.824;7.134;2024-02-04T04:00:18;10.30;99.90
20068;DHT22;10194;50.824;7.134;2024-02-04T04:02:43;10.20;99.90
20068;DHT22;10194;50.824;7.134;2024-02-04T04:05:12;10.30;99.90
20068;DHT22;10194;50.824;7.134;2024-02-04T04:07:39;10.20;99.90
20068;DHT22;10194;50.824;7.134;2024-02-04T04:10:06;10.20;99.90
20068;DHT22;10194;50.824;7.134;2024-02-04T04:12:32;10.20;99.90
20068;DHT22;10194;50.824;7.134;2024-02-04T04:14:58;10.40;99.90
20068;DHT22;10194;50.824;7.134;2024-02-04T04:17:23;10.40;99.90
20068;DHT22;10194;50.824;7.134;2024-02-04T04:19:49;10.40;99.90
20068;DHT22;10194;50.824;7.134;2024-02-04T04:22:15;10.40;99.90
20068;DHT22;10194;50.824;7.134;2024-02-04T04:24:41;10.40;99.90
20068;DHT22;10194;50.824;7.134;2024-02-04T04:27:06;10.40;99.90
20068;DHT22;10194;50.824;7.134;2024-02-04T04:29:32;10.40;99.90
20068;DHT22;10194;50.824;7.134;2024-02-04T04:31:58;10.40;99.90
20068;DHT22;10194;50.824;7.134;2024-02-04T04:34:24;10.50;99.90
20068;DHT22;10194;50.824;7.134;2024-02-04T04:36:49;10.60;99.90
20068;DHT22;10194;50.824;7.134;2024-02-04T04:39:15;10.50;99.90
20068;DHT22;10194;50.824;7.134;2024-02-04T04:41:44;10.50;99.90
20068;DHT22;10194;50.824;7.134;2024-02-04T04:44:11;10.50;99.90
20068;DHT22;10194;50.824;7.134;2024-02-04T04:46:40;10.50;99.90
20068;DHT22;10194;50.824;7.134;2024-02-04T04:49:06;10.50;99.90
20068;DHT22;10194;50.824;7.134;2024-02-04T04:51:31;10.50;99.90
20068;DHT22;10194;50.824;7.134;2024-02-04T04:53:57;10.50;99.90
20068;DHT22;10194;50.824;7.134;2024-02-04T04:56:23;10.50;99.90
20068;DHT22;10194;50.824;7.134;2024-02-04T04:58:49;10.60;99.90
20068;DHT22;10194;50.824;7.134;2024-02-04T05:01:16;10.60;99.90
20068;DHT22;10194;50.824;7.134;2024-02-04T05:03:42;10.60;99.90
20068;DHT22;10194;50.824;7.134;2024-02-04T05:06:08;10.50;99.90
20068;DHT22;10194;50.824;7.134;2024-02-04T05:08:34;10.50;99.90
20068;DHT22;10194;50.824;7.134;2024-02-04T05:10:59;10.60;99.90
20068;DHT22;10194;50.824;7.134;2024-02-04T05:13:25;10.50;99.90
20068;DHT22;10194;50.824;7.134;2024-02-04T05:15:51;10.50;99.90
20068;DHT22;10194;50.824;7.134;2024-02-04T05:18:16;10.50;99.90
20068;DHT22;10194;50.824;7.134;2024-02-04T05:20:42;10.50;99.90
20068;DHT22;10194;50.824;7.134;2024-02-04T05:23:09;10.50;99.90
20068;DHT22;10194;50.824;7.134;2024-02-04T05:25:35;10.50;99.90
20068;DHT22;10194;50.824;7.134;2024-02-04T05:28:00;10.50;99.90
20068;DHT22;10194;50.824;7.134;2024-02-04T05:30:26;10.40;99.90
20068;DHT22;10194;50.824;7.134;2024-02-04T05:32:52;10.50;99.90
20068;DHT22;10194;50.824;7.134;2024-02-04T05:35:17;10.50;99.90
20068;DHT22;10194;50.824;7.134;2024-02-04T05:37:43;10.50;99.90
20068;DHT22;10194;50.824;7.134;2024-02-04T05:40:09;10.50;99.90
20068;DHT22;10194;50.824;7.134;2024-02-04T05:42:35;10.50;99.90
20068;DHT22;10194;50.824;7.134;2024-02-04T05:45:03;10.50;99.90
20068;DHT22;10194;50.824;7.134;2024-02-04T05:47:30;10.50;99.90
20068;DHT22;10194;50.824;7.134;2024-02-04T05:49:56;10.60;99.90
20068;DHT22;10194;50.824;7.134;2024-02-04T05:52:22;10.50;99.90
20068;DHT22;10194;50.824;7.134;2024-02-04T05:54:48;10.50;99.90
20068;DHT22;10194;50.824;7.134;2024-02-04T05:57:14;10.50;99.90
20068;DHT22;10194;50.824;7.134;2024-02-04T05:59:40;10.50;99.90
20068;DHT22;10194;50.824;7.134;2024-02-04T06:02:05;10.50;99.90
20068;DHT22;10194;50.824;7.134;2024-02-04T06:04:32;10.50;99.90
20068;DHT22;10194;50.824;7.134;2024-02-04T06:06:58;10.40;99.90
20068;DHT22;10194;50.824;7.134;2024-02-04T06:09:23;10.40;99.90
20068;DHT22;10194;50.824;7.134;2024-02-04T06:11:49;10.40;99.90
20068;DHT22;10194;50.824;7.134;2024-02-04T06:14:15;10.40;99.90
20068;DHT22;10194;50.824;7.134;2024-02-04T06:16:40;10.40;99.90
20068;DHT22;10194;50.824;7.134;2024-02-04T06:19:06;10.30;99.90
20068;DHT22;10194;50.824;7.134;2024-02-04T06:21:34;10.40;99.90
20068;DHT22;10194;50.824;7.134;2024-02-04T06:24:00;10.40;99.90
20068;DHT22;10194;50.824;7.134;2024-02-04T06:26:25;10.40;99.90
20068;DHT22;10194;50.824;7.134;2024-02-04T06:28:51;10.40;99.90
20068;DHT22;10194;50.824;7.134;2024-02-04T06:31:17;10.40;99.90
20068;DHT22;10194;50.824;7.134;2024-02-04T06:33:43;10.40;99.90
20068;DHT22;10194;50.824;7.134;2024-02-04T06:36:10;10.30;99.90
20068;DHT22;10194;50.824;7.134;2024-02-04T06:38:36;10.30;99.90
20068;DHT22;10194;50.824;7.134;2024-02-04T06:41:02;10.30;99.90
20068;DHT22;10194;50.824;7.134;2024-02-04T06:43:28;10.40;99.90
20068;DHT22;10194;50.824;7.134;2024-02-04T06:45:54;10.40;99.90
20068;DHT22;10194;50.824;7.134;2024-02-04T06:48:22;10.30;99.90
20068;DHT22;10194;50.824;7.134;2024-02-04T06:50:48;10.40;99.90
20068;DHT22;10194;50.824;7.134;2024-02-04T06:53:14;10.30;99.90
20068;DHT22;10194;50.824;7.134;2024-02-04T06:55:40;10.30;99.90
20068;DHT22;10194;50.824;7.134;2024-02-04T06:58:06;10.30;99.90
20068;DHT22;10194;50.824;7.134;2024-02-04T07:00:32;10.30;99.90
20068;DHT22;10194;50.824;7.134;2024-02-04T07:02:58;10.20;99.90
20068;DHT22;10194;50.824;7.134;2024-02-04T07:05:24;10.20;99.90
20068;DHT22;10194;50.824;7.134;2024-02-04T07:07:50;10.20;99.90
20068;DHT22;10194;50.824;7.134;2024-02-04T07:10:16;10.20;99.90
20068;DHT22;10194;50.824;7.134;2024-02-04T07:12:43;10.20;99.90
20068;DHT22;10194;50.824;7.134;2024-02-04T07:15:09;10.20;99.90
20068;DHT22;10194;50.824;7.134;2024-02-04T07:17:35;10.20;99.90
20068;DHT22;10194;50.824;7.134;2024-02-04T07:20:04;10.20;99.90
20068;DHT22;10194;50.824;7.134;2024-02-04T07:22:31;10.20;99.90
20068;DHT22;10194;50.824;7.134;2024-02-04T07:24:56;10.20;99.90
20068;DHT22;10194;50.824;7.134;2024-02-04T07:27:22;10.20;99.90
20068;DHT22;10194;50.824;7.134;2024-02-04T07:29:48;10.20;99.90
20068;DHT22;10194;50.824;7.134;2024-02-04T07:32:14;10.20;99.90
20068;DHT22;10194;50.824;7.134;2024-02-04T07:34:40;10.20;99.90
20068;DHT22;10194;50.824;7.134;2024-02-04T07:37:06;10.20;99.90
20068;DHT22;10194;50.824;7.134;2024-02-04T07:39:32;10.20;99.90
20068;DHT22;10194;50.824;7.134;2024-02-04T07:41:58;10.20;99.90
20068;DHT22;10194;50.824;7.134;2024-02-04T07:44:28;10.20;99.90
20068;DHT22;10194;50.824;7.134;2024-02-04T07:46:53;10.20;99.90
20068;DHT22;10194;50.824;7.134;2024-02-04T07:49:19;10.20;99.90
20068;DHT22;10194;50.824;7.134;2024-02-04T07:51:45;10.20;99.90
20068;DHT22;10194;50.824;7.134;2024-02-04T07:54:11;10.20;99.90
20068;DHT22;10194;50.824;7.134;2024-02-04T07:56:37;10.20;99.90
20068;DHT22;10194;50.824;7.134;2024-02-04T07:59:03;10.20;99.90
20068;DHT22;10194;50.824;7.134;2024-02-04T08:01:29;10.20;99.90
20068;DHT22;10194;50.824;7.134;2024-02-04T08:03:56;10.20;99.90
20068;DHT22;10194;50.824;7.134;2024-02-04T08:06:22;10.20;99.90
20068;DHT22;10194;50.824;7.134;2024-02-04T08:08:47;10.20;99.90
20068;DHT22;10194;50.824;7.134;2024-02-04T08:11:17;10.20;99.90
20068;DHT22;10194;50.824;7.134;2024-02-04T08:13:43;10.30;99.90
20068;DHT22;10194;50.824;7.134;2024-02-04T08:16:10;10.30;99.90
20068;DHT22;10194;50.824;7.134;2024-02-04T08:18:36;10.40;99.90
20068;DHT22;10194;50.824;7.134;2024-02-04T08:21:02;10.40;99.90
20068;DHT22;10194;50.824;7.134;2024-02-04T08:23:29;10.50;99.90
20068;DHT22;10194;50.824;7.134;2024-02-04T08:25:54;10.50;99.90
20068;DHT22;10194;50.824;7.134;2024-02-04T08:28:22;10.60;99.90
20068;DHT22;10194;50.824;7.134;2024-02-04T08:30:49;10.60;99.90
20068;DHT22;10194;50.824;7.134;2024-02-04T08:33:15;10.60;99.90
20068;DHT22;10194;50.824;7.134;2024-02-04T08:35:41;10.70;99.90
20068;DHT22;10194;50.824;7.134;2024-02-04T08:38:06;10.70;99.90
20068;DHT22;10194;50.824;7.134;2024-02-04T08:40:32;10.80;99.90
20068;DHT22;10194;50.824;7.134;2024-02-04T08:42:58;10.90;99.90
20068;DHT22;10194;50.824;7.134;2024-02-04T08:45:24;11.00;99.90
20068;DHT22;10194;50.824;7.134;2024-02-04T08:47:49;11.00;99.90
20068;DHT22;10194;50.824;7.134;2024-02-04T08:50:15;11.00;99.90
20068;DHT22;10194;50.824;7.134;2024-02-04T08:52:41;10.90;99.90
20068;DHT22;10194;50.824;7.134;2024-02-04T08:55:07;10.90;99.90
20068;DHT22;10194;50.824;7.134;2024-02-04T08:57:34;10.80;99.90
20068;DHT22;10194;50.824;7.134;2024-02-04T09:00:03;10.80;99.90
20068;DHT22;10194;50.824;7.134;2024-02-04T09:02:29;10.70;99.90
20068;DHT22;10194;50.824;7.134;2024-02-04T09:04:55;10.70;99.90
20068;DHT22;10194;50.824;7.134;2024-02-04T09:07:20;10.70;99.90
20068;DHT22;10194;50.824;7.134;2024-02-04T09:09:46;10.60;99.90
20068;DHT22;10194;50.824;7.134;2024-02-04T09:12:12;10.60;99.90
20068;DHT22;10194;50.824;7.134;2024-02-04T09:14:38;10.60;99.90
20068;DHT22;10194;50.824;7.134;2024-02-04T09:17:04;10.60;99.90
20068;DHT22;10194;50.824;7.134;2024-02-04T09:19:32;10.60;99.90
20068;DHT22;10194;50.824;7.134;2024-02-04T09:21:58;10.60;99.90
20068;DHT22;10194;50.824;7.134;2024-02-04T09:24:23;10.70;99.90
20068;DHT22;10194;50.824;7.134;2024-02-04T09:26:49;10.70;99.90
20068;DHT22;10194;50.824;7.134;2024-02-04T09:29:15;10.80;99.90
20068;DHT22;10194;50.824;7.134;2024-02-04T09:31:41;10.90;99.90
20068;DHT22;10194;50.824;7.134;2024-02-04T09:34:06;10.90;99.90
20068;DHT22;10194;50.824;7.134;2024-02-04T09:36:32;10.90;99.90
20068;DHT22;10194;50.824;7.134;2024-02-04T09:38:58;10.90;99.90
20068;DHT22;10194;50.824;7.134;2024-02-04T09:41:24;11.00;99.90
20068;DHT22;10194;50.824;7.134;2024-02-04T09:43:51;11.10;99.90
20068;DHT22;10194;50.824;7.134;2024-02-04T09:46:18;11.10;99.90
20068;DHT22;10194;50.824;7.134;2024-02-04T09:48:45;11.10;99.90
20068;DHT22;10194;50.824;7.134;2024-02-04T09:51:11;11.20;99.90
20068;DHT22;10194;50.824;7.134;2024-02-04T09:53:45;11.10;99.90
20068;DHT22;10194;50.824;7.134;2024-02-04T09:56:11;11.10;99.90
20068;DHT22;10194;50.824;7.134;2024-02-04T09:58:37;11.10;99.90
20068;DHT22;10194;50.824;7.134;2024-02-04T10:01:07;11.10;99.90
20068;DHT22;10194;50.824;7.134;2024-02-04T10:03:36;11.10;99.90
20068;DHT22;10194;50.824;7.134;2024-02-04T10:06:02;11.10;99.90
20068;DHT22;10194;50.824;7.134;2024-02-04T10:08:28;11.10;99.90
20068;DHT22;10194;50.824;7.134;2024-02-04T10:10:54;11.10;99.90
20068;DHT22;10194;50.824;7.134;2024-02-04T10:13:20;11.10;99.90
20068;DHT22;10194;50.824;7.134;2024-02-04T10:15:48;11.10;99.90
20068;DHT22;10194;50.824;7.134;2024-02-04T10:18:16;11.10;99.90
20068;DHT22;10194;50.824;7.134;2024-02-04T10:20:43;11.20;99.90
20068;DHT22;10194;50.824;7.134;2024-02-04T10:23:09;11.20;99.90
20068;DHT22;10194;50.824;7.134;2024-02-04T10:25:34;11.20;99.90
20068;DHT22;10194;50.824;7.134;2024-02-04T10:28:01;11.20;99.90
20068;DHT22;10194;50.824;7.134;2024-02-04T10:30:27;11.20;99.90
20068;DHT22;10194;50.824;7.134;2024-02-04T10:32:53;11.20;99.90
20068;DHT22;10194;50.824;7.134;2024-02-04T10:35:23;11.30;99.90
20068;DHT22;10194;50.824;7.134;2024-02-04T10:37:52;11.30;99.90
20068;DHT22;10194;50.824;7.134;2024-02-04T10:40:18;11.30;99.90
20068;DHT22;10194;50.824;7.134;2024-02-04T10:42:45;11.20;99.90
20068;DHT22;10194;50.824;7.134;2024-02-04T10:45:11;11.20;99.90
20068;DHT22;10194;50.824;7.134;2024-02-04T10:47:40;11.20;99.90
20068;DHT22;10194;50.824;7.134;2024-02-04T10:50:08;11.20;99.90
20068;DHT22;10194;50.824;7.134;2024-02-04T10:52:38;11.20;99.90
20068;DHT22;10194;50.824;7.134;2024-02-04T10:55:09;11.20;99.90
20068;DHT22;10194;50.824;7.134;2024-02-04T10:57:37;11.30;99.90
20068;DHT22;10194;50.824;7.134;2024-02-04T11:00:04;11.30;99.90
20068;DHT22;10194;50.824;7.134;2024-02-04T11:02:34;11.30;99.90
20068;DHT22;10194;50.824;7.134;2024-02-04T11:05:04;11.30;99.90
20068;DHT22;10194;50.824;7.134;2024-02-04T11:07:34;11.30;99.90
20068;DHT22;10194;50.824;7.134;2024-02-04T11:10:01;11.40;99.90
20068;DHT22;10194;50.824;7.134;2024-02-04T11:12:28;11.50;99.90
20068;DHT22;10194;50.824;7.134;2024-02-04T11:15:01;11.60;99.90
20068;DHT22;10194;50.824;7.134;2024-02-04T11:17:42;11.60;99.90
20068;DHT22;10194;50.824;7.134;2024-02-04T11:24:08;11.50;99.90
20068;DHT22;10194;50.824;7.134;2024-02-04T11:26:32;11.60;99.90
20068;DHT22;10194;50.824;7.134;2024-02-04T11:28:58;11.50;99.90
20068;DHT22;10194;50.824;7.134;2024-02-04T11:31:28;11.50;99.90
20068;DHT22;10194;50.824;7.134;2024-02-04T11:33:54;11.50;99.90
20068;DHT22;10194;50.824;7.134;2024-02-04T11:36:24;11.40;99.90
20068;DHT22;10194;50.824;7.134;2024-02-04T11:38:51;11.40;99.90
20068;DHT22;10194;50.824;7.134;2024-02-04T11:41:24;11.40;99.90
20068;DHT22;10194;50.824;7.134;2024-02-04T11:43:57;11.40;99.90
20068;DHT22;10194;50.824;7.134;2024-02-04T11:46:29;11.50;99.90
20068;DHT22;10194;50.824;7.134;2024-02-04T11:48:58;11.50;99.90
20068;DHT22;10194;50.824;7.134;2024-02-04T11:51:24;11.40;99.90
20068;DHT22;10194;50.824;7.134;2024-02-04T11:53:51;11.50;99.90
20068;DHT22;10194;50.824;7.134;2024-02-04T11:56:18;11.50;99.90
20068;DHT22;10194;50.824;7.134;2024-02-04T11:58:45;11.50;99.90
20068;DHT22;10194;50.824;7.134;2024-02-04T12:01:11;11.50;99.90
20068;DHT22;10194;50.824;7.134;2024-02-04T12:03:37;11.50;99.90
20068;DHT22;10194;50.824;7.134;2024-02-04T12:06:03;11.50;99.90
20068;DHT22;10194;50.824;7.134;2024-02-04T12:08:32;11.50;99.90
20068;DHT22;10194;50.824;7.134;2024-02-04T12:10:59;11.50;99.90
20068;DHT22;10194;50.824;7.134;2024-02-04T12:13:28;11.60;99.90
20068;DHT22;10194;50.824;7.134;2024-02-04T12:15:54;11.70;99.90
20068;DHT22;10194;50.824;7.134;2024-02-04T12:18:20;11.80;99.90
20068;DHT22;10194;50.824;7.134;2024-02-04T12:20:47;11.80;99.90
20068;DHT22;10194;50.824;7.134;2024-02-04T12:23:17;11.80;99.90
20068;DHT22;10194;50.824;7.134;2024-02-04T12:25:44;11.70;99.90
20068;DHT22;10194;50.824;7.134;2024-02-04T12:28:10;11.60;99.90
20068;DHT22;10194;50.824;7.134;2024-02-04T12:30:36;11.60;99.90
20068;DHT22;10194;50.824;7.134;2024-02-04T12:33:04;11.70;99.90
20068;DHT22;10194;50.824;7.134;2024-02-04T12:35:31;11.70;99.90
20068;DHT22;10194;50.824;7.134;2024-02-04T12:37:58;11.70;99.90
20068;DHT22;10194;50.824;7.134;2024-02-04T12:40:29;11.70;99.90
20068;DHT22;10194;50.824;7.134;2024-02-04T12:43:00;11.70;99.90
20068;DHT22;10194;50.824;7.134;2024-02-04T12:45:30;11.70;99.90
20068;DHT22;10194;50.824;7.134;2024-02-04T12:47:57;11.70;99.90
20068;DHT22;10194;50.824;7.134;2024-02-04T12:50:24;11.70;99.90
20068;DHT22;10194;50.824;7.134;2024-02-04T12:53:02;11.70;99.90
20068;DHT22;10194;50.824;7.134;2024-02-04T12:55:29;11.70;99.90
20068;DHT22;10194;50.824;7.134;2024-02-04T13:00:36;11.80;99.90
20068;DHT22;10194;50.824;7.134;2024-02-04T13:03:07;11.80;99.90
20068;DHT22;10194;50.824;7.134;2024-02-04T13:05:34;11.80;99.90
20068;DHT22;10194;50.824;7.134;2024-02-04T13:08:01;11.80;99.90
20068;DHT22;10194;50.824;7.134;2024-02-04T13:10:34;11.80;99.90
20068;DHT22;10194;50.824;7.134;2024-02-04T13:13:08;11.80;99.90
20068;DHT22;10194;50.824;7.134;2024-02-04T13:15:43;11.70;99.90
20068;DHT22;10194;50.824;7.134;2024-02-04T13:18:09;11.70;99.90
20068;DHT22;10194;50.824;7.134;2024-02-04T13:20:41;11.70;99.90
20068;DHT22;10194;50.824;7.134;2024-02-04T13:23:08;11.80;99.90
20068;DHT22;10194;50.824;7.134;2024-02-04T13:25:34;11.80;99.90
20068;DHT22;10194;50.824;7.134;2024-02-04T13:28:00;11.80;99.90
20068;DHT22;10194;50.824;7.134;2024-02-04T13:30:26;11.80;99.90
20068;DHT22;10194;50.824;7.134;2024-02-04T13:32:52;11.70;99.90
20068;DHT22;10194;50.824;7.134;2024-02-04T13:35:18;11.70;99.90
20068;DHT22;10194;50.824;7.134;2024-02-04T13:37:45;11.60;99.90
20068;DHT22;10194;50.824;7.134;2024-02-04T13:40:16;11.60;99.90
20068;DHT22;10194;50.824;7.134;2024-02-04T13:42:43;11.60;99.90
20068;DHT22;10194;50.824;7.134;2024-02-04T13:45:09;11.60;99.90
20068;DHT22;10194;50.824;7.134;2024-02-04T13:47:36;11.60;99.90
20068;DHT22;10194;50.824;7.134;2024-02-04T13:50:02;11.60;99.90
20068;DHT22;10194;50.824;7.134;2024-02-04T13:52:29;11.60;99.90
20068;DHT22;10194;50.824;7.134;2024-02-04T13:54:54;11.60;99.90
20068;DHT22;10194;50.824;7.134;2024-02-04T13:57:20;11.70;99.90
20068;DHT22;10194;50.824;7.134;2024-02-04T13:59:46;11.60;99.90
20068;DHT22;10194;50.824;7.134;2024-02-04T14:02:12;11.70;99.90
20068;DHT22;10194;50.824;7.134;2024-02-04T14:04:38;11.60;99.90
20068;DHT22;10194;50.824;7.134;2024-02-04T14:07:03;11.60;99.90
20068;DHT22;10194;50.824;7.134;2024-02-04T14:09:29;11.60;99.90
20068;DHT22;10194;50.824;7.134;2024-02-04T14:11:55;11.60;99.90
20068;DHT22;10194;50.824;7.134;2024-02-04T14:14:22;11.60;99.90
20068;DHT22;10194;50.824;7.134;2024-02-04T14:16:49;11.50;99.90
20068;DHT22;10194;50.824;7.134;2024-02-04T14:19:15;11.40;99.90
20068;DHT22;10194;50.824;7.134;2024-02-04T14:21:44;11.40;99.90
20068;DHT22;10194;50.824;7.134;2024-02-04T14:24:09;11.30;99.90
20068;DHT22;10194;50.824;7.134;2024-02-04T14:26:35;11.30;99.90
20068;DHT22;10194;50.824;7.134;2024-02-04T14:29:01;11.40;99.90
20068;DHT22;10194;50.824;7.134;2024-02-04T14:31:27;11.50;99.90
20068;DHT22;10194;50.824;7.134;2024-02-04T14:33:53;11.50;99.90
20068;DHT22;10194;50.824;7.134;2024-02-04T14:36:19;11.50;99.90
20068;DHT22;10194;50.824;7.134;2024-02-04T14:38:45;11.50;99.90
20068;DHT22;10194;50.824;7.134;2024-02-04T14:41:11;11.50;99.90
20068;DHT22;10194;50.824;7.134;2024-02-04T14:43:37;11.50;99.90
20068;DHT22;10194;50.824;7.134;2024-02-04T14:46:04;11.50;99.90
20068;DHT22;10194;50.824;7.134;2024-02-04T14:48:30;11.50;99.90
20068;DHT22;10194;50.824;7.134;2024-02-04T14:50:56;11.40;99.90
20068;DHT22;10194;50.824;7.134;2024-02-04T14:53:25;11.40;99.90
20068;DHT22;10194;50.824;7.134;2024-02-04T14:55:51;11.30;99.90
20068;DHT22;10194;50.824;7.134;2024-02-04T14:58:16;11.30;99.90
20068;DHT22;10194;50.824;7.134;2024-02-04T15:00:42;11.30;99.90
20068;DHT22;10194;50.824;7.134;2024-02-04T15:03:09;11.30;99.90
20068;DHT22;10194;50.824;7.134;2024-02-04T15:05:35;11.20;99.90
20068;DHT22;10194;50.824;7.134;2024-02-04T15:08:00;11.20;99.90
20068;DHT22;10194;50.824;7.134;2024-02-04T15:10:26;11.10;99.90
20068;DHT22;10194;50.824;7.134;2024-02-04T15:12:52;11.10;99.90
20068;DHT22;10194;50.824;7.134;2024-02-04T15:15:19;11.10;99.90
20068;DHT22;10194;50.824;7.134;2024-02-04T15:17:45;11.00;99.90
20068;DHT22;10194;50.824;7.134;2024-02-04T15:20:12;11.00;99.90
20068;DHT22;10194;50.824;7.134;2024-02-04T15:22:42;10.90;99.90
20068;DHT22;10194;50.824;7.134;2024-02-04T15:25:09;10.90;99.90
20068;DHT22;10194;50.824;7.134;2024-02-04T15:27:36;10.90;99.90
20068;DHT22;10194;50.824;7.134;2024-02-04T15:30:02;10.90;99.90
20068;DHT22;10194;50.824;7.134;2024-02-04T15:32:29;10.90;99.90
20068;DHT22;10194;50.824;7.134;2024-02-04T15:34:55;10.80;99.90
20068;DHT22;10194;50.824;7.134;2024-02-04T15:37:21;10.80;99.90
20068;DHT22;10194;50.824;7.134;2024-02-04T15:39:47;10.80;99.90
20068;DHT22;10194;50.824;7.134;2024-02-04T15:42:13;10.80;99.90